METAR AND TAF INFORMATION
METAR FOR DTTJ
ADDS - METARS form results

(2158 UTC 20 February 2020)
Data provider http://aviationweather.gov/metar/data/
 
METAR text: DTTJ 202130Z 12005KT CAVOK 11/05 Q1026 NOSIG
Conditions at: DTTJ (DJERBA MELLITA , TN) observed 2130 UTC 20 February 2020
Temperature: 11.0°C (52°F)
Dewpoint: 5.0°C (41°F) [RH = 66%]
Pressure (altimeter): 30.30 inches Hg (1026.0 mb)
Winds: from the ESE (120 degrees) at 6 MPH (5 knots; 2.6 m/s)
Visibility: 6 or more miles (10+ km)
Ceiling: ceiling and visibility are OK
Clouds: unknown
Weather: no significant weather observed at this time

METAR text: DTTJ 202100Z 11004KT CAVOK 12/05 Q1026 NOSIG
Conditions at: DTTJ (DJERBA MELLITA , TN) observed 2100 UTC 20 February 2020
Temperature: 12.0°C (54°F)
Dewpoint: 5.0°C (41°F) [RH = 62%]
Pressure (altimeter): 30.30 inches Hg (1026.0 mb)
Winds: from the ESE (110 degrees) at 5 MPH (4 knots; 2.1 m/s)
Visibility: 6 or more miles (10+ km)
Ceiling: ceiling and visibility are OK
Clouds: unknown
Weather: no significant weather observed at this time

Forecast for: DTTJ (DJERBA MELLITA , TN)
Text: TAF DTTJ 201700Z 2018/2118 20003KT CAVOK
Forecast period: 1800 UTC 20 February 2020 to 0100 UTC 21 February 2020
Forecast type: FROM: standard forecast or significant change
Winds: from the SSW (200 degrees) at 3 MPH (3 knots; 1.5 m/s)
Visibility: 6 or more miles 10+ km)
Ceiling: unknown
Clouds: missing
Weather: NSW  (no significant weather)
Text: BECMG 2101/2103 VRB03KT 7000 NSC
Forecast period: 0100 to 0700 UTC 21 February 2020
Forecast type: BECOMING: Conditions expected to become as follows by 0300 UTC 21 February 2020
Winds: variable direction winds at 3 MPH (3 knots; 1.5 m/s)
Visibility: 4 miles (7 km)
Ceiling: unknown
Clouds: missing
Weather: NSW  (no significant weather)
Text: BECMG 2107/2109 30008KT
Forecast period: 0700 to 1400 UTC 21 February 2020
Forecast type: BECOMING: Conditions expected to become as follows by 0900 UTC 21 February 2020
Winds: from the WNW (300 degrees) at 9 MPH (8 knots; 4.1 m/s)
Visibility: 4 miles (7 km)
Ceiling: unknown
Clouds: missing
Weather: NSW  (no significant weather)
Text: BECMG 2114/2116 07006KT
Forecast period: 1400 to 1800 UTC 21 February 2020
Forecast type: BECOMING: Conditions expected to become as follows by 1600 UTC 21 February 2020
Winds: from the ENE (70 degrees) at 7 MPH (6 knots; 3.1 m/s)
Visibility: 4 miles (7 km)
Ceiling: unknown
Clouds: missing
Weather: NSW  (no significant weather)

 AIRPORT MAP

 RUNWAY INFORMATION
Runway 09 Runway length 10171 ft Runway width 148 ft
Runway elevation 9 ft Runway displaced threshold 0 ft Runway heading 88
Runway 27 Runway length 10171 ft Runway width 148 ft
Runway elevation 18 ft Runway displaced threshold 0 ft Runway heading 268

 AIRPORT FREQUENCIES
Type APP Name DJERBA APP Frequency 120.3 MHZ
Type TWR Name DJERBA TWR Frequency 118.15 MHZ

 AIRPORT NEAR NAVIGATION AIDS
Type VOR-DME Name Djerba Frequency 112200 KHZ



Powered by Virtual Airlines Manager [v2.6.2]